Time;durP1;ratioP1;P1;durP2;ratioP2;P2;SDS_P1;SDS_P2;PMS_P1;PMS_P2;Temp;Humidity;BMP_temperature;BMP_pressure;BME280_temperature;BME280_humidity;BME280_pressure;Samples;Min_cycle;Max_cycle;Signal;HPM_P1;HPM_P2
2022/12/21 00:00:19;;;;;;;;;;;3.80;87.80;;;;;;5073605;28;19990;-87
2022/12/21 00:02:45;;;;;;;;;;;3.80;87.10;;;;;;5073574;28;19964;-87
2022/12/21 00:05:10;;;;;;;;;;;3.80;87.30;;;;;;5072546;28;20011;-87
2022/12/21 00:07:36;;;;;;;;;;;3.80;87.70;;;;;;5073502;28;20079;-87
2022/12/21 00:10:01;;;;;;;;;;;3.90;87.70;;;;;;5073453;28;19982;-87
2022/12/21 00:12:27;;;;;;;;;;;4.10;87.10;;;;;;5073433;28;19989;-87
2022/12/21 00:14:53;;;;;;;;;;;4.20;86.40;;;;;;5073330;28;19935;-87
2022/12/21 00:17:18;;;;;;;;;;;4.30;85.60;;;;;;5073333;28;19936;-87
2022/12/21 00:19:44;;;;;;;;;;;4.40;84.70;;;;;;5073361;28;19938;-86
2022/12/21 00:22:09;;;;;;;;;;;4.10;84.80;;;;;;5073119;28;20459;-87
2022/12/21 00:24:35;;;;;;;;;;;4.00;85.50;;;;;;5073155;28;20056;-87
2022/12/21 00:27:01;;;;;;;;;;;3.80;85.90;;;;;;5072977;28;19945;-87
2022/12/21 00:29:26;;;;;;;;;;;3.70;86.20;;;;;;5073168;28;19946;-87
2022/12/21 00:31:53;;;;;;;;;;;3.50;86.80;;;;;;5073148;28;20443;-87
2022/12/21 00:34:19;;;;;;;;;;;3.40;87.00;;;;;;5072760;28;19946;-88
2022/12/21 00:36:45;;;;;;;;;;;3.40;87.50;;;;;;5073158;28;20008;-87
2022/12/21 00:39:11;;;;;;;;;;;3.50;87.60;;;;;;5073123;28;20378;-87
2022/12/21 00:41:36;;;;;;;;;;;3.50;87.70;;;;;;5055070;28;20486;-87
2022/12/21 00:44:02;;;;;;;;;;;3.40;87.90;;;;;;5072562;28;20063;-87
2022/12/21 00:46:31;;;;;;;;;;;3.50;87.90;;;;;;5073053;28;19953;-87
2022/12/21 00:48:57;;;;;;;;;;;3.50;87.90;;;;;;5073050;28;19937;-87
2022/12/21 00:51:24;;;;;;;;;;;3.50;87.90;;;;;;5072980;28;20409;-87
2022/12/21 00:53:50;;;;;;;;;;;3.50;87.70;;;;;;5072800;28;19957;-87
2022/12/21 00:56:16;;;;;;;;;;;3.70;87.40;;;;;;5072986;28;19940;-87
2022/12/21 00:58:41;;;;;;;;;;;3.70;86.90;;;;;;5072930;28;19944;-87
2022/12/21 01:01:27;;;;;;;;;;;3.50;87.30;;;;;;5072887;28;20403;-87
2022/12/21 01:03:53;;;;;;;;;;;3.40;87.20;;;;;;5072136;28;19949;-87
2022/12/21 01:06:23;;;;;;;;;;;3.30;87.10;;;;;;5072871;28;20450;-87
2022/12/21 01:08:49;;;;;;;;;;;3.20;87.30;;;;;;5072824;28;20070;-87
2022/12/21 01:11:15;;;;;;;;;;;3.00;87.60;;;;;;5072801;28;19965;-87
2022/12/21 01:13:41;;;;;;;;;;;2.90;88.00;;;;;;5072516;28;19947;-87
2022/12/21 01:16:14;;;;;;;;;;;2.80;88.20;;;;;;5074934;28;19957;-87
2022/12/21 01:18:40;;;;;;;;;;;2.60;88.30;;;;;;5076738;28;19948;-87
2022/12/21 01:21:05;;;;;;;;;;;2.50;88.50;;;;;;5076515;28;20029;-87
2022/12/21 01:23:31;;;;;;;;;;;2.50;88.80;;;;;;5076584;28;20401;-87
2022/12/21 01:25:56;;;;;;;;;;;2.50;89.50;;;;;;5076505;28;19962;-87
2022/12/21 01:28:24;;;;;;;;;;;2.50;89.70;;;;;;5076037;28;20226;-87
2022/12/21 01:30:50;;;;;;;;;;;2.70;90.40;;;;;;5076418;28;20364;-87
2022/12/21 01:33:17;;;;;;;;;;;2.70;90.30;;;;;;5058493;28;19974;-87
2022/12/21 01:35:43;;;;;;;;;;;2.80;90.10;;;;;;5076349;28;19945;-87
2022/12/21 01:38:09;;;;;;;;;;;2.80;90.10;;;;;;5076276;28;19937;-87
2022/12/21 01:40:35;;;;;;;;;;;2.90;90.00;;;;;;5076274;28;20051;-87
2022/12/21 01:43:00;;;;;;;;;;;2.90;89.80;;;;;;5075968;28;19980;-87
2022/12/21 01:45:27;;;;;;;;;;;2.80;89.50;;;;;;5076103;28;20059;-87
2022/12/21 01:47:57;;;;;;;;;;;2.80;89.70;;;;;;5075638;28;20315;-87
2022/12/21 01:50:23;;;;;;;;;;;2.70;89.50;;;;;;5076123;28;19938;-87
2022/12/21 01:52:49;;;;;;;;;;;2.70;89.40;;;;;;5076144;28;20002;-87
2022/12/21 01:55:14;;;;;;;;;;;2.60;89.10;;;;;;5075926;28;19936;-87
2022/12/21 01:57:40;;;;;;;;;;;2.50;89.30;;;;;;5075899;28;19949;-87
2022/12/21 02:00:08;;;;;;;;;;;2.50;89.70;;;;;;5075951;28;19942;-87
2022/12/21 02:02:39;;;;;;;;;;;2.40;90.00;;;;;;5075474;28;19950;-87
2022/12/21 02:05:28;;;;;;;;;;;2.50;90.20;;;;;;5075765;28;20082;-87
2022/12/21 02:07:56;;;;;;;;;;;2.60;90.20;;;;;;5057806;28;19945;-87
2022/12/21 02:10:22;;;;;;;;;;;2.70;90.20;;;;;;5075751;28;20471;-87
2022/12/21 02:12:50;;;;;;;;;;;3.00;90.10;;;;;;5075694;28;20032;-87
2022/12/21 02:15:15;;;;;;;;;;;3.00;89.90;;;;;;5075664;28;19936;-87
2022/12/21 02:17:46;;;;;;;;;;;2.90;89.60;;;;;;5075533;28;19956;-87
2022/12/21 02:20:30;;;;;;;;;;;2.90;89.70;;;;;;5075544;28;20046;-87
2022/12/21 02:23:16;;;;;;;;;;;2.80;89.80;;;;;;5032363;22;20012;-87
2022/12/21 02:25:50;;;;;;;;;;;2.80;89.60;;;;;;5035454;28;19961;-87
2022/12/21 02:28:41;;;;;;;;;;;3.00;89.60;;;;;;5035509;28;19945;-87
2022/12/21 02:31:31;;;;;;;;;;;3.00;88.60;;;;;;5035433;28;19992;-87
2022/12/21 02:34:05;;;;;;;;;;;2.80;88.70;;;;;;5035381;28;19939;-87
2022/12/21 02:36:37;;;;;;;;;;;2.80;89.10;;;;;;5035561;28;19966;-87
2022/12/21 02:39:08;;;;;;;;;;;2.60;89.30;;;;;;5035245;28;20297;-87
2022/12/21 02:41:42;;;;;;;;;;;2.50;89.70;;;;;;5035234;28;19942;-88
2022/12/21 02:44:37;;;;;;;;;;;2.60;89.90;;;;;;5035105;28;19962;-87
2022/12/21 02:47:02;;;;;;;;;;;2.60;89.90;;;;;;5030488;28;20398;-87
2022/12/21 02:49:50;;;;;;;;;;;2.60;90.20;;;;;;5035074;28;19957;-87
2022/12/21 02:52:24;;;;;;;;;;;2.60;90.00;;;;;;5034956;28;19963;-87
2022/12/21 02:54:53;;;;;;;;;;;2.70;89.80;;;;;;5034839;28;19963;-88
2022/12/21 02:57:18;;;;;;;;;;;3.00;89.50;;;;;;5034693;28;19950;-87
2022/12/21 02:59:47;;;;;;;;;;;3.20;88.60;;;;;;5034831;28;19947;-87
2022/12/21 03:02:25;;;;;;;;;;;3.30;88.40;;;;;;5034873;28;19940;-87
2022/12/21 03:05:12;;;;;;;;;;;3.20;88.30;;;;;;5034738;28;20037;-87
2022/12/21 03:07:44;;;;;;;;;;;3.20;88.20;;;;;;5034785;28;19940;-87
2022/12/21 03:10:10;;;;;;;;;;;3.10;88.30;;;;;;5034928;28;19948;-87
2022/12/21 03:12:44;;;;;;;;;;;3.10;88.20;;;;;;5034611;28;19941;-87
2022/12/21 03:15:28;;;;;;;;;;;2.90;89.00;;;;;;5034580;28;19938;-87
2022/12/21 03:17:56;;;;;;;;;;;2.90;88.80;;;;;;5034551;28;19939;-87
2022/12/21 03:20:27;;;;;;;;;;;2.90;89.20;;;;;;5034452;28;19938;-87
2022/12/21 03:23:12;;;;;;;;;;;2.90;89.10;;;;;;5034297;28;19971;-87
2022/12/21 03:25:57;;;;;;;;;;;2.70;89.50;;;;;;5034351;28;19955;-87
2022/12/21 03:28:29;;;;;;;;;;;2.70;90.00;;;;;;5033512;28;19991;-87
2022/12/21 03:30:57;;;;;;;;;;;2.80;90.50;;;;;;5034083;28;19946;-87
2022/12/21 03:33:26;;;;;;;;;;;2.90;90.30;;;;;;5034288;28;20029;-87
2022/12/21 03:35:58;;;;;;;;;;;2.90;90.30;;;;;;5034199;28;19941;-87
2022/12/21 03:38:29;;;;;;;;;;;3.00;90.40;;;;;;5034028;28;19945;-87
2022/12/21 03:40:56;;;;;;;;;;;3.10;89.80;;;;;;5034119;28;19982;-87
2022/12/21 03:43:27;;;;;;;;;;;3.20;89.90;;;;;;5032781;28;19955;-87
2022/12/21 03:45:58;;;;;;;;;;;3.20;89.90;;;;;;5033922;28;19988;-87
2022/12/21 03:48:26;;;;;;;;;;;3.20;89.80;;;;;;5033991;28;19939;-87
2022/12/21 03:50:53;;;;;;;;;;;3.30;89.60;;;;;;5033887;28;19986;-87
2022/12/21 03:53:19;;;;;;;;;;;3.20;89.50;;;;;;5033768;28;19962;-87
2022/12/21 03:55:48;;;;;;;;;;;3.20;89.10;;;;;;5033777;28;19936;-87
2022/12/21 03:58:14;;;;;;;;;;;3.20;89.20;;;;;;5033497;28;20524;-87
2022/12/21 04:00:58;;;;;;;;;;;3.10;89.60;;;;;;5033755;28;19948;-87
2022/12/21 04:03:27;;;;;;;;;;;3.10;89.90;;;;;;5033654;28;20040;-87
2022/12/21 04:05:54;;;;;;;;;;;2.90;89.70;;;;;;5033589;28;19965;-87
2022/12/21 04:08:21;;;;;;;;;;;2.80;90.00;;;;;;5033594;28;20004;-88
2022/12/21 04:10:48;;;;;;;;;;;2.80;90.40;;;;;;5033612;28;19937;-87
2022/12/21 04:13:14;;;;;;;;;;;2.80;90.30;;;;;;5033808;28;19943;-87
2022/12/21 04:16:12;;;;;;;;;;;2.90;89.90;;;;;;5033499;28;19946;-87
2022/12/21 04:21:16;;;;;;;;;;;3.10;89.80;;;;;;5033561;28;20055;-87
2022/12/21 04:29:10;;;;;;;;;;;3.40;89.50;;;;;;5013579;28;19947;-87
2022/12/21 04:31:35;;;;;;;;;;;3.70;89.40;;;;;;5013594;28;19943;-87
2022/12/21 04:34:01;;;;;;;;;;;3.70;88.70;;;;;;5013527;28;19943;-87
2022/12/21 04:39:11;;;;;;;;;;;3.70;88.40;;;;;;5013480;28;19944;-87
2022/12/21 04:41:36;;;;;;;;;;;3.80;88.60;;;;;;5013468;28;20055;-87
2022/12/21 04:44:02;;;;;;;;;;;3.70;88.30;;;;;;5013269;28;20342;-87
2022/12/21 04:46:28;;;;;;;;;;;3.60;88.60;;;;;;5013658;28;19983;-88
2022/12/21 04:48:53;;;;;;;;;;;3.80;88.70;;;;;;5013665;28;19950;-88
2022/12/21 04:51:20;;;;;;;;;;;3.90;88.70;;;;;;5012814;28;20483;-87
2022/12/21 04:53:46;;;;;;;;;;;3.80;88.30;;;;;;5013191;28;19954;-87
2022/12/21 04:56:12;;;;;;;;;;;3.80;88.60;;;;;;5013331;28;19946;-87
2022/12/21 04:58:38;;;;;;;;;;;3.80;88.60;;;;;;5029487;28;20334;-87
2022/12/21 05:01:08;;;;;;;;;;;3.80;89.00;;;;;;5032778;28;20478;-87
2022/12/21 05:03:33;;;;;;;;;;;3.90;88.80;;;;;;5032964;28;20460;-87
2022/12/21 05:05:59;;;;;;;;;;;3.90;88.70;;;;;;5032872;28;20053;-87
2022/12/21 05:08:24;;;;;;;;;;;4.10;88.50;;;;;;5032907;28;20309;-87
2022/12/21 05:10:50;;;;;;;;;;;4.00;88.00;;;;;;5032886;28;20347;-88
2022/12/21 05:13:16;;;;;;;;;;;4.00;88.10;;;;;;5032814;28;20336;-87
2022/12/21 05:15:41;;;;;;;;;;;4.00;87.80;;;;;;5032798;28;19943;-87
2022/12/21 05:18:07;;;;;;;;;;;4.00;88.10;;;;;;5033122;28;19950;-87
2022/12/21 05:20:32;;;;;;;;;;;3.90;88.40;;;;;;5032783;28;20382;-87
2022/12/21 05:22:58;;;;;;;;;;;3.90;88.60;;;;;;5032582;28;19985;-87
2022/12/21 05:25:23;;;;;;;;;;;3.80;88.90;;;;;;5032677;28;20012;-87
2022/12/21 05:27:49;;;;;;;;;;;3.70;89.00;;;;;;5032501;28;19951;-87
2022/12/21 05:30:15;;;;;;;;;;;3.60;89.20;;;;;;5032692;28;19953;-87
2022/12/21 05:32:40;;;;;;;;;;;3.50;89.70;;;;;;5032650;28;19943;-87
2022/12/21 05:35:06;;;;;;;;;;;3.70;89.90;;;;;;5032694;28;19944;-86
2022/12/21 05:37:31;;;;;;;;;;;3.80;89.60;;;;;;5032910;28;19949;-87
2022/12/21 05:39:57;;;;;;;;;;;3.80;89.50;;;;;;5032874;28;20308;-87
2022/12/21 05:42:22;;;;;;;;;;;3.80;89.60;;;;;;5032589;28;20365;-87
2022/12/21 05:44:48;;;;;;;;;;;3.80;89.50;;;;;;5032512;28;20302;-87
2022/12/21 05:47:13;;;;;;;;;;;3.70;89.80;;;;;;5032567;28;19939;-87
2022/12/21 05:49:39;;;;;;;;;;;3.70;90.00;;;;;;5032528;28;19936;-87
2022/12/21 05:52:04;;;;;;;;;;;3.70;89.90;;;;;;5032445;28;19953;-87
2022/12/21 05:54:30;;;;;;;;;;;3.80;90.10;;;;;;5032176;28;19951;-87
2022/12/21 05:56:55;;;;;;;;;;;3.90;90.00;;;;;;5032229;28;19963;-87
2022/12/21 05:59:21;;;;;;;;;;;4.00;89.60;;;;;;5029643;28;20340;-87
2022/12/21 06:01:46;;;;;;;;;;;4.00;89.40;;;;;;5031183;28;19989;-87
2022/12/21 06:04:12;;;;;;;;;;;4.00;89.40;;;;;;5034071;28;19946;-87
2022/12/21 06:06:37;;;;;;;;;;;4.00;89.50;;;;;;5034977;28;20075;-87
2022/12/21 06:09:03;;;;;;;;;;;4.00;89.50;;;;;;5035455;28;19945;-87
2022/12/21 06:11:29;;;;;;;;;;;4.10;89.60;;;;;;5034288;28;20292;-87
2022/12/21 06:13:54;;;;;;;;;;;4.00;89.10;;;;;;5035409;28;20040;-87
2022/12/21 06:16:24;;;;;;;;;;;3.90;89.90;;;;;;5035130;28;19943;-87
2022/12/21 06:18:50;;;;;;;;;;;4.00;89.70;;;;;;5035247;28;19943;-87
2022/12/21 06:21:16;;;;;;;;;;;4.20;89.20;;;;;;5035067;28;19940;-87
2022/12/21 06:23:42;;;;;;;;;;;4.20;88.80;;;;;;5034829;28;20023;-87
2022/12/21 06:26:10;;;;;;;;;;;4.20;89.20;;;;;;5034832;28;20072;-87
2022/12/21 06:28:36;;;;;;;;;;;4.30;89.20;;;;;;5033844;28;19949;-88
2022/12/21 06:31:11;;;;;;;;;;;4.20;89.10;;;;;;5029356;28;19949;-87
2022/12/21 06:33:37;;;;;;;;;;;4.20;89.20;;;;;;5031561;28;19952;-88
2022/12/21 06:36:04;;;;;;;;;;;4.20;89.10;;;;;;5033228;28;20319;-88
2022/12/21 06:38:30;;;;;;;;;;;4.40;88.70;;;;;;5032302;28;20009;-87
2022/12/21 06:40:59;;;;;;;;;;;4.40;88.50;;;;;;5032267;28;20416;-87
2022/12/21 06:43:26;;;;;;;;;;;4.30;88.60;;;;;;5030078;28;20029;-87
2022/12/21 06:45:52;;;;;;;;;;;4.30;88.60;;;;;;5039831;28;19984;-87
2022/12/21 06:48:18;;;;;;;;;;;4.00;89.20;;;;;;5049954;28;19950;-87
2022/12/21 06:50:43;;;;;;;;;;;3.90;89.50;;;;;;5039568;28;19948;-88
2022/12/21 06:53:08;;;;;;;;;;;4.00;89.50;;;;;;5034339;28;19965;-88
2022/12/21 06:55:34;;;;;;;;;;;3.90;89.70;;;;;;5038257;28;20432;-88
2022/12/21 06:57:59;;;;;;;;;;;4.00;89.60;;;;;;5033131;28;19956;-87
2022/12/21 07:00:25;;;;;;;;;;;4.10;89.60;;;;;;5027817;28;19959;-88
2022/12/21 07:02:50;;;;;;;;;;;4.20;89.50;;;;;;5030639;28;19944;-88
2022/12/21 07:05:16;;;;;;;;;;;4.30;89.20;;;;;;5031213;28;20337;-89
2022/12/21 07:07:41;;;;;;;;;;;4.40;88.90;;;;;;5033621;28;20041;-89
2022/12/21 07:10:07;;;;;;;;;;;4.50;87.80;;;;;;5031868;28;20850;-88
2022/12/21 07:12:33;;;;;;;;;;;4.50;87.60;;;;;;5031548;28;20047;-88
2022/12/21 07:14:58;;;;;;;;;;;4.40;87.50;;;;;;5029790;28;19972;-88
2022/12/21 07:17:24;;;;;;;;;;;4.30;87.40;;;;;;5028149;28;19945;-88
2022/12/21 07:19:49;;;;;;;;;;;4.20;87.40;;;;;;5031758;28;19998;-88
2022/12/21 07:22:15;;;;;;;;;;;4.10;88.10;;;;;;5030401;28;19969;-88
2022/12/21 07:24:40;;;;;;;;;;;4.10;88.70;;;;;;5034126;28;20010;-88
2022/12/21 07:27:06;;;;;;;;;;;4.10;88.70;;;;;;5028305;28;20323;-88
2022/12/21 07:29:31;;;;;;;;;;;4.20;88.50;;;;;;5033734;28;19987;-88
2022/12/21 07:31:57;;;;;;;;;;;4.10;88.30;;;;;;5031474;28;20286;-88
2022/12/21 07:34:22;;;;;;;;;;;4.10;88.40;;;;;;5028011;28;19946;-88
2022/12/21 07:36:48;;;;;;;;;;;4.10;88.60;;;;;;5025926;28;20050;-88
2022/12/21 07:39:13;;;;;;;;;;;4.10;88.90;;;;;;5029303;28;19965;-89
2022/12/21 07:41:39;;;;;;;;;;;4.20;88.80;;;;;;5027973;28;20357;-85
2022/12/21 07:44:04;;;;;;;;;;;4.40;88.60;;;;;;5027628;28;19993;-84
2022/12/21 07:46:30;;;;;;;;;;;4.40;88.30;;;;;;5031854;28;20462;-84
2022/12/21 07:48:55;;;;;;;;;;;4.40;88.50;;;;;;5031583;28;20032;-88
2022/12/21 07:51:21;;;;;;;;;;;4.40;87.80;;;;;;5028578;28;19998;-88
2022/12/21 07:53:46;;;;;;;;;;;4.40;87.60;;;;;;5031477;28;20481;-88
2022/12/21 07:56:17;;;;;;;;;;;4.40;87.60;;;;;;5030345;28;20012;-88
2022/12/21 07:58:42;;;;;;;;;;;4.40;87.70;;;;;;5029627;28;19968;-88
2022/12/21 08:01:09;;;;;;;;;;;4.40;87.80;;;;;;5028419;28;19972;-88
2022/12/21 08:03:35;;;;;;;;;;;4.40;88.00;;;;;;5028255;28;19949;-88
2022/12/21 08:06:01;;;;;;;;;;;4.40;88.20;;;;;;5028808;28;20080;-88
2022/12/21 08:08:26;;;;;;;;;;;4.60;88.20;;;;;;5027309;28;19985;-88
2022/12/21 08:10:52;;;;;;;;;;;4.70;87.20;;;;;;5029308;28;20318;-88
2022/12/21 08:13:17;;;;;;;;;;;4.80;86.00;;;;;;5033289;28;19946;-87
2022/12/21 08:15:43;;;;;;;;;;;4.80;85.60;;;;;;5032207;28;19938;-88
2022/12/21 08:18:08;;;;;;;;;;;4.80;85.80;;;;;;5032835;28;20381;-88
2022/12/21 08:20:34;;;;;;;;;;;4.70;86.20;;;;;;5029096;28;19946;-88
2022/12/21 08:22:59;;;;;;;;;;;4.60;86.60;;;;;;5029566;28;20475;-88
2022/12/21 08:25:26;;;;;;;;;;;4.50;87.00;;;;;;5023159;28;19968;-88
2022/12/21 08:27:51;;;;;;;;;;;4.50;87.30;;;;;;5022452;28;20551;-88
2022/12/21 08:30:17;;;;;;;;;;;4.50;87.50;;;;;;5026279;28;19999;-88
2022/12/21 08:32:43;;;;;;;;;;;4.60;88.00;;;;;;5028866;28;19944;-88
2022/12/21 08:35:08;;;;;;;;;;;4.70;87.80;;;;;;5025377;28;19954;-88
2022/12/21 08:37:34;;;;;;;;;;;4.80;87.90;;;;;;5025177;28;19954;-88
2022/12/21 08:39:59;;;;;;;;;;;5.00;87.30;;;;;;5024854;28;19942;-88
2022/12/21 08:42:25;;;;;;;;;;;5.20;86.30;;;;;;5024186;28;19946;-88
2022/12/21 08:44:50;;;;;;;;;;;5.20;84.70;;;;;;5028408;28;19972;-88
2022/12/21 08:47:16;;;;;;;;;;;5.20;84.10;;;;;;5025904;28;20289;-88
2022/12/21 08:49:41;;;;;;;;;;;5.10;84.20;;;;;;5020906;28;19943;-88
2022/12/21 08:52:07;;;;;;;;;;;5.00;84.90;;;;;;5029674;28;20095;-88
2022/12/21 08:54:33;;;;;;;;;;;5.00;85.50;;;;;;5028552;28;19982;-88
2022/12/21 08:56:58;;;;;;;;;;;5.00;85.50;;;;;;5028317;28;19954;-88
2022/12/21 08:59:24;;;;;;;;;;;5.00;86.00;;;;;;5022765;28;19950;-88
2022/12/21 09:01:51;;;;;;;;;;;4.90;86.30;;;;;;5030102;28;20331;-88
2022/12/21 09:04:16;;;;;;;;;;;5.00;86.70;;;;;;5031141;28;19980;-88
2022/12/21 09:06:42;;;;;;;;;;;5.30;86.70;;;;;;5028116;28;19982;-88
2022/12/21 09:09:08;;;;;;;;;;;5.40;86.30;;;;;;5029977;28;20319;-88
2022/12/21 09:11:34;;;;;;;;;;;5.60;85.90;;;;;;5026970;28;20072;-88
2022/12/21 09:14:00;;;;;;;;;;;5.50;85.70;;;;;;5029105;28;20412;-88
2022/12/21 09:16:26;;;;;;;;;;;5.70;85.10;;;;;;5026138;28;19951;-88
2022/12/21 09:18:51;;;;;;;;;;;5.70;84.50;;;;;;5025258;28;19952;-88
2022/12/21 09:21:19;;;;;;;;;;;5.70;84.30;;;;;;5028429;28;19946;-87
2022/12/21 09:23:44;;;;;;;;;;;5.50;84.30;;;;;;5029779;28;19941;-88
2022/12/21 09:26:10;;;;;;;;;;;5.50;85.20;;;;;;5027755;28;19971;-88
2022/12/21 09:28:36;;;;;;;;;;;5.50;85.80;;;;;;5024648;28;19945;-88
2022/12/21 09:31:28;;;;;;;;;;;5.40;86.50;;;;;;5029716;28;20076;-88
2022/12/21 09:33:54;;;;;;;;;;;5.30;86.70;;;;;;5025590;28;19989;-88
2022/12/21 09:36:20;;;;;;;;;;;5.30;86.80;;;;;;5033345;28;19950;-88
2022/12/21 09:38:46;;;;;;;;;;;5.30;86.70;;;;;;5031195;28;19947;-88
2022/12/21 09:41:27;;;;;;;;;;;5.40;86.40;;;;;;5033927;28;19941;-88
2022/12/21 09:44:08;;;;;;;;;;;5.40;86.20;;;;;;5034140;28;19955;-88
2022/12/21 09:46:35;;;;;;;;;;;5.40;86.30;;;;;;5028270;28;19949;-88
2022/12/21 09:49:05;;;;;;;;;;;5.40;86.00;;;;;;5034644;28;20415;-88
2022/12/21 09:51:35;;;;;;;;;;;5.40;85.50;;;;;;5033285;28;20400;-87
2022/12/21 09:54:06;;;;;;;;;;;5.40;85.60;;;;;;5030485;28;19970;-88
2022/12/21 09:56:32;;;;;;;;;;;5.30;85.50;;;;;;5032656;28;20007;-87
2022/12/21 09:59:01;;;;;;;;;;;5.20;85.80;;;;;;5029065;28;19958;-87
2022/12/21 10:01:26;;;;;;;;;;;5.30;86.00;;;;;;5031890;28;19969;-88
2022/12/21 10:04:10;;;;;;;;;;;5.40;85.90;;;;;;5030635;28;20405;-88
2022/12/21 10:06:55;;;;;;;;;;;5.30;86.10;;;;;;5032710;28;19948;-88
2022/12/21 10:09:24;;;;;;;;;;;5.40;85.90;;;;;;5033164;28;19947;-88
2022/12/21 10:11:49;;;;;;;;;;;5.40;85.90;;;;;;5032690;28;19955;-88
2022/12/21 10:14:18;;;;;;;;;;;5.50;85.70;;;;;;5034904;28;19997;-89
2022/12/21 10:17:01;;;;;;;;;;;5.60;85.90;;;;;;5026557;28;20383;-89
2022/12/21 10:19:31;;;;;;;;;;;5.70;85.90;;;;;;5029646;28;20321;-89
2022/12/21 10:21:57;;;;;;;;;;;5.90;85.90;;;;;;5041435;22;19949;-89
2022/12/21 10:24:24;;;;;;;;;;;6.10;84.40;;;;;;5061766;28;19948;-88
2022/12/21 10:26:54;;;;;;;;;;;6.10;83.30;;;;;;5061881;28;19968;-88
2022/12/21 10:29:21;;;;;;;;;;;6.00;84.20;;;;;;5057549;28;20016;-88
2022/12/21 10:31:46;;;;;;;;;;;5.90;84.40;;;;;;5048405;28;19972;-88
2022/12/21 10:34:21;;;;;;;;;;;6.00;84.90;;;;;;5052736;28;19981;-89
2022/12/21 10:36:47;;;;;;;;;;;5.90;84.50;;;;;;5051543;28;19997;-88
2022/12/21 10:39:14;;;;;;;;;;;5.90;84.50;;;;;;5052635;28;20054;-89
2022/12/21 10:41:42;;;;;;;;;;;5.90;84.70;;;;;;5051420;28;20038;-89
2022/12/21 10:44:08;;;;;;;;;;;6.00;85.00;;;;;;5053824;28;20431;-88
2022/12/21 10:46:35;;;;;;;;;;;6.20;84.60;;;;;;5055243;28;20890;-88
2022/12/21 10:49:09;;;;;;;;;;;6.40;84.10;;;;;;5050944;28;19971;-89
2022/12/21 10:51:35;;;;;;;;;;;6.50;83.30;;;;;;5053618;28;19945;-89
2022/12/21 10:54:00;;;;;;;;;;;6.50;82.80;;;;;;5052345;28;19971;-89
2022/12/21 10:56:26;;;;;;;;;;;6.60;83.20;;;;;;5054624;28;19945;-88
2022/12/21 10:58:52;;;;;;;;;;;6.70;82.00;;;;;;5054071;28;20007;-88
2022/12/21 11:01:27;;;;;;;;;;;6.60;81.90;;;;;;5050507;28;19941;-88
2022/12/21 11:04:06;;;;;;;;;;;6.50;82.20;;;;;;5045727;28;19939;-88
2022/12/21 11:06:31;;;;;;;;;;;6.40;82.40;;;;;;5052291;28;20048;-88
2022/12/21 11:08:57;;;;;;;;;;;6.40;82.10;;;;;;5053317;28;20377;-89
2022/12/21 11:11:28;;;;;;;;;;;6.30;82.50;;;;;;5069387;28;19945;-88
2022/12/21 11:13:58;;;;;;;;;;;6.30;82.90;;;;;;5054467;28;19977;-89
2022/12/21 11:16:26;;;;;;;;;;;6.50;82.50;;;;;;5054447;28;19946;-89
2022/12/21 11:18:52;;;;;;;;;;;6.60;82.30;;;;;;5069057;28;19944;-89
2022/12/21 11:21:40;;;;;;;;;;;6.70;82.30;;;;;;5062457;28;20333;-89
2022/12/21 11:24:20;;;;;;;;;;;6.80;81.90;;;;;;5060957;28;20033;-88
2022/12/21 11:26:50;;;;;;;;;;;6.80;81.00;;;;;;5062748;28;20457;-87
2022/12/21 11:29:26;;;;;;;;;;;6.70;80.50;;;;;;5053333;28;19945;-88
2022/12/21 11:31:55;;;;;;;;;;;6.50;80.70;;;;;;5056503;28;19967;-88
2022/12/21 11:34:36;;;;;;;;;;;6.50;81.10;;;;;;5067697;28;19990;-88
2022/12/21 11:37:06;;;;;;;;;;;6.50;81.70;;;;;;5066442;28;20198;-88
2022/12/21 11:39:32;;;;;;;;;;;6.60;82.00;;;;;;5054997;28;20030;-89
2022/12/21 11:41:57;;;;;;;;;;;6.70;81.90;;;;;;5061235;28;20513;-88
2022/12/21 11:44:24;;;;;;;;;;;7.00;81.10;;;;;;5071261;28;19973;-89
2022/12/21 11:46:59;;;;;;;;;;;7.00;80.90;;;;;;5054949;28;19945;-88
2022/12/21 11:49:44;;;;;;;;;;;7.00;80.90;;;;;;5060458;28;20424;-88
2022/12/21 11:52:09;;;;;;;;;;;6.90;80.40;;;;;;5071398;28;20537;-88
2022/12/21 11:54:55;;;;;;;;;;;7.00;79.50;;;;;;5053696;28;20029;-88
2022/12/21 11:57:23;;;;;;;;;;;7.00;79.10;;;;;;5022277;28;20420;-88
2022/12/21 11:59:49;;;;;;;;;;;6.90;79.30;;;;;;5063608;28;19945;-88
2022/12/21 12:02:23;;;;;;;;;;;6.90;79.20;;;;;;5058796;28;19952;-88
2022/12/21 12:04:54;;;;;;;;;;;6.90;79.00;;;;;;5065074;28;20141;-88
2022/12/21 12:07:39;;;;;;;;;;;6.90;79.10;;;;;;5073459;28;19971;-88
2022/12/21 12:10:07;;;;;;;;;;;6.90;79.40;;;;;;5061125;28;19945;-88
2022/12/21 12:12:43;;;;;;;;;;;6.90;78.30;;;;;;5052455;28;20414;-88
2022/12/21 12:15:09;;;;;;;;;;;6.90;78.10;;;;;;5050303;28;20386;-88
2022/12/21 12:17:37;;;;;;;;;;;6.80;78.60;;;;;;5052901;28;19952;-88
2022/12/21 12:20:15;;;;;;;;;;;6.90;79.40;;;;;;5064732;28;19944;-88
2022/12/21 12:23:03;;;;;;;;;;;7.10;79.60;;;;;;5057875;28;20001;-88
2022/12/21 12:25:34;;;;;;;;;;;7.30;78.70;;;;;;5024495;28;19969;-88
2022/12/21 12:28:00;;;;;;;;;;;7.30;79.20;;;;;;5051722;28;19952;-88
2022/12/21 12:30:34;;;;;;;;;;;7.30;79.80;;;;;;5049261;28;20045;-88
2022/12/21 12:33:18;;;;;;;;;;;7.20;79.80;;;;;;5042858;28;19975;-87
2022/12/21 12:35:56;;;;;;;;;;;7.10;79.90;;;;;;5051434;28;20064;-87
2022/12/21 12:38:40;;;;;;;;;;;7.10;79.10;;;;;;5047422;28;20401;-89
2022/12/21 12:41:21;;;;;;;;;;;7.20;78.90;;;;;;5048156;28;19945;-89
2022/12/21 12:43:46;;;;;;;;;;;7.20;79.20;;;;;;5044673;28;19941;-89
2022/12/21 12:46:23;;;;;;;;;;;7.10;79.60;;;;;;5044413;28;19958;-89
2022/12/21 12:48:57;;;;;;;;;;;7.20;80.00;;;;;;5047036;28;19947;-89
2022/12/21 12:51:41;;;;;;;;;;;7.10;79.30;;;;;;5048101;28;19952;-89
2022/12/21 12:54:09;;;;;;;;;;;7.10;79.20;;;;;;5046020;28;19969;-89
2022/12/21 12:56:38;;;;;;;;;;;7.10;78.90;;;;;;5040517;28;19954;-89
2022/12/21 12:59:06;;;;;;;;;;;7.10;79.00;;;;;;5036983;28;19954;-89
2022/12/21 13:01:43;;;;;;;;;;;7.00;79.50;;;;;;5047673;28;20037;-89
2022/12/21 13:04:15;;;;;;;;;;;7.00;79.90;;;;;;5048183;28;19942;-89
2022/12/21 13:06:52;;;;;;;;;;;7.00;79.30;;;;;;5043985;28;19956;-89
2022/12/21 13:09:30;;;;;;;;;;;7.00;78.80;;;;;;5046624;28;19949;-89
2022/12/21 13:12:02;;;;;;;;;;;7.00;79.30;;;;;;5053857;28;19937;-89
2022/12/21 13:14:27;;;;;;;;;;;6.90;79.30;;;;;;5036996;28;20035;-89
2022/12/21 13:17:01;;;;;;;;;;;6.90;79.90;;;;;;5054181;28;20087;-88
2022/12/21 13:19:28;;;;;;;;;;;6.90;79.50;;;;;;5052048;28;20400;-89
2022/12/21 13:21:55;;;;;;;;;;;6.90;79.90;;;;;;5052509;28;20113;-89
2022/12/21 13:24:23;;;;;;;;;;;6.90;79.70;;;;;;5052170;28;19944;-89
2022/12/21 13:26:51;;;;;;;;;;;6.90;79.60;;;;;;5054473;28;19949;-89
2022/12/21 13:29:27;;;;;;;;;;;6.90;79.70;;;;;;5050888;28;20031;-89
2022/12/21 13:31:56;;;;;;;;;;;7.00;80.10;;;;;;5043995;28;19949;-89
2022/12/21 13:34:57;;;;;;;;;;;7.30;79.80;;;;;;5033798;28;20493;-89
2022/12/21 13:37:22;;;;;;;;;;;7.30;79.20;;;;;;5007035;28;19951;-89
2022/12/21 13:39:53;;;;;;;;;;;7.40;78.80;;;;;;5047211;28;20331;-89
2022/12/21 13:42:39;;;;;;;;;;;7.30;78.70;;;;;;5042836;28;19986;-89
2022/12/21 13:45:10;;;;;;;;;;;7.30;79.30;;;;;;5050438;28;20331;-88
2022/12/21 13:47:36;;;;;;;;;;;7.20;79.40;;;;;;5054794;28;20162;-88
2022/12/21 13:50:17;;;;;;;;;;;7.10;79.40;;;;;;5031060;28;20450;-89
2022/12/21 13:52:43;;;;;;;;;;;7.20;78.50;;;;;;5047606;28;19957;-89
2022/12/21 13:55:14;;;;;;;;;;;7.10;78.20;;;;;;5053823;28;20279;-89
2022/12/21 13:57:55;;;;;;;;;;;7.00;78.40;;;;;;5052071;28;20453;-89
2022/12/21 14:00:36;;;;;;;;;;;7.00;79.20;;;;;;5054186;28;19949;-89
2022/12/21 14:03:01;;;;;;;;;;;7.00;79.50;;;;;;5043096;28;19949;-89
2022/12/21 14:05:28;;;;;;;;;;;7.10;79.80;;;;;;5048591;28;20106;-89
2022/12/21 14:08:10;;;;;;;;;;;7.10;79.60;;;;;;5047961;28;19954;-89
2022/12/21 14:10:45;;;;;;;;;;;7.10;79.20;;;;;;5048933;28;19954;-89
2022/12/21 14:13:20;;;;;;;;;;;7.10;79.00;;;;;;5048794;28;20352;-89
2022/12/21 14:15:56;;;;;;;;;;;7.10;79.20;;;;;;5045636;28;20320;-89
2022/12/21 14:18:23;;;;;;;;;;;7.10;79.40;;;;;;5051905;28;20031;-89
2022/12/21 14:20:58;;;;;;;;;;;7.00;79.40;;;;;;5050532;28;19942;-89
2022/12/21 14:23:27;;;;;;;;;;;7.10;79.10;;;;;;5048012;28;19973;-89
2022/12/21 14:25:53;;;;;;;;;;;7.10;78.40;;;;;;5038289;28;19956;-88
2022/12/21 14:28:30;;;;;;;;;;;7.10;78.10;;;;;;5048917;28;19941;-88
2022/12/21 14:30:59;;;;;;;;;;;7.00;77.80;;;;;;5051107;28;19965;-89
2022/12/21 14:33:31;;;;;;;;;;;6.90;75.70;;;;;;5052643;28;19943;-89
2022/12/21 14:36:15;;;;;;;;;;;6.90;77.70;;;;;;5036042;28;19979;-89
2022/12/21 14:38:41;;;;;;;;;;;6.80;78.40;;;;;;5051152;28;20029;-89
2022/12/21 14:41:09;;;;;;;;;;;6.80;79.20;;;;;;5043789;28;19940;-89
2022/12/21 14:43:53;;;;;;;;;;;6.80;80.00;;;;;;5049433;28;19952;-89
2022/12/21 14:46:26;;;;;;;;;;;6.80;80.70;;;;;;5062620;28;20089;-89
2022/12/21 14:49:08;;;;;;;;;;;6.70;81.00;;;;;;5049590;28;19944;-89
2022/12/21 14:51:50;;;;;;;;;;;6.70;81.30;;;;;;5049745;28;19954;-89
2022/12/21 14:54:22;;;;;;;;;;;6.80;81.50;;;;;;5050156;28;20022;-89